Time;durP1;ratioP1;P1;durP2;ratioP2;P2;SDS_P1;SDS_P2;PMS_P1;PMS_P2;Temp;Humidity;BMP_temperature;BMP_pressure;BME280_temperature;BME280_humidity;BME280_pressure;Samples;Min_cycle;Max_cycle;Signal;HPM_P1;HPM_P2
2023/09/27 00:00:09;;;;;;;0.50;0.50;;;;;;;;;;4905855;29;20597;-62
2023/09/27 00:02:38;;;;;;;0.50;0.50;;;;;;;;;;4901286;29;20221;-61
2023/09/27 00:05:06;;;;;;;0.60;0.60;;;;;;;;;;4901692;29;20024;-62
2023/09/27 00:07:35;;;;;;;0.60;0.60;;;;;;;;;;4900001;29;20131;-63
2023/09/27 00:10:01;;;;;;;0.50;0.50;;;;;;;;;;4900880;29;20033;-62
2023/09/27 00:12:27;;;;;;;0.57;0.57;;;;;;;;;;4901730;29;20039;-62
2023/09/27 00:14:53;;;;;;;0.60;0.60;;;;;;;;;;4899457;29;20115;-62
2023/09/27 00:17:19;;;;;;;0.50;0.50;;;;;;;;;;4901245;29;20036;-62
2023/09/27 00:19:44;;;;;;;0.50;0.50;;;;;;;;;;4899952;29;20052;-62
2023/09/27 00:22:10;;;;;;;0.57;0.57;;;;;;;;;;4899096;29;20041;-62
2023/09/27 00:24:35;;;;;;;0.50;0.50;;;;;;;;;;4902072;29;20028;-62
2023/09/27 00:27:01;;;;;;;0.60;0.60;;;;;;;;;;4899848;29;20655;-62
2023/09/27 00:29:26;;;;;;;0.60;0.60;;;;;;;;;;4898488;29;20044;-62
2023/09/27 00:31:51;;;;;;;0.60;0.60;;;;;;;;;;4900862;29;20504;-61
2023/09/27 00:34:16;;;;;;;0.60;0.60;;;;;;;;;;4901038;29;20043;-61
2023/09/27 00:36:42;;;;;;;0.50;0.50;;;;;;;;;;4900989;29;20043;-62
2023/09/27 00:39:07;;;;;;;0.50;0.50;;;;;;;;;;4900820;29;20040;-61
2023/09/27 00:41:32;;;;;;;0.60;0.60;;;;;;;;;;4916049;29;20040;-61
2023/09/27 00:43:58;;;;;;;0.60;0.60;;;;;;;;;;4899544;29;20033;-63
2023/09/27 00:46:23;;;;;;;0.50;0.50;;;;;;;;;;4901286;29;20431;-63
2023/09/27 00:48:49;;;;;;;0.52;0.52;;;;;;;;;;4912844;29;20055;-65
2023/09/27 00:51:14;;;;;;;0.50;0.50;;;;;;;;;;4899320;29;20036;-63
2023/09/27 00:53:40;;;;;;;0.60;0.60;;;;;;;;;;4915281;29;20047;-62
2023/09/27 00:56:06;;;;;;;0.55;0.55;;;;;;;;;;4899863;29;20069;-64
2023/09/27 00:58:32;;;;;;;0.70;0.70;;;;;;;;;;4899713;29;20107;-63
2023/09/27 01:00:58;;;;;;;0.50;0.50;;;;;;;;;;4898809;29;20123;-63
2023/09/27 01:03:24;;;;;;;0.60;0.60;;;;;;;;;;4899815;29;20431;-66
2023/09/27 01:05:49;;;;;;;0.50;0.50;;;;;;;;;;4915959;29;20024;-63
2023/09/27 01:08:14;;;;;;;0.60;0.60;;;;;;;;;;4900340;29;20099;-62
2023/09/27 01:10:40;;;;;;;0.60;0.60;;;;;;;;;;4900550;29;20122;-64
2023/09/27 01:13:07;;;;;;;0.65;0.65;;;;;;;;;;4898429;29;20080;-65
2023/09/27 01:15:33;;;;;;;0.68;0.68;;;;;;;;;;4906729;29;20044;-62
2023/09/27 01:17:59;;;;;;;0.60;0.60;;;;;;;;;;4899469;29;20040;-63
2023/09/27 01:20:26;;;;;;;0.60;0.60;;;;;;;;;;4900178;29;20055;-66
2023/09/27 01:22:54;;;;;;;0.60;0.60;;;;;;;;;;4898052;29;20028;-62
2023/09/27 01:25:20;;;;;;;0.60;0.60;;;;;;;;;;4896341;29;20107;-62
2023/09/27 01:27:47;;;;;;;0.60;0.60;;;;;;;;;;4896504;29;20036;-62
2023/09/27 01:30:12;;;;;;;0.60;0.60;;;;;;;;;;4913215;29;20080;-65
2023/09/27 01:32:37;;;;;;;0.60;0.60;;;;;;;;;;4900784;29;20033;-63
2023/09/27 01:35:03;;;;;;;0.60;0.60;;;;;;;;;;4900237;29;20107;-63
2023/09/27 01:37:28;;;;;;;0.60;0.60;;;;;;;;;;4900453;29;20056;-65
2023/09/27 01:39:54;;;;;;;0.60;0.60;;;;;;;;;;4900192;29;20083;-62
2023/09/27 01:42:20;;;;;;;0.60;0.60;;;;;;;;;;4905238;29;20146;-62
2023/09/27 01:44:45;;;;;;;0.60;0.60;;;;;;;;;;4914092;29;20583;-61
2023/09/27 01:47:10;;;;;;;0.60;0.60;;;;;;;;;;4915407;29;20688;-64
2023/09/27 01:49:35;;;;;;;0.60;0.60;;;;;;;;;;4901146;29;20556;-63
2023/09/27 01:52:01;;;;;;;0.50;0.50;;;;;;;;;;4915803;29;20545;-64
2023/09/27 01:54:26;;;;;;;0.60;0.60;;;;;;;;;;4898545;29;20084;-65
2023/09/27 01:56:51;;;;;;;0.60;0.60;;;;;;;;;;4901276;29;20502;-63
2023/09/27 01:59:17;;;;;;;0.60;0.60;;;;;;;;;;4913880;29;20040;-63
2023/09/27 02:01:42;;;;;;;0.60;0.60;;;;;;;;;;4897371;29;20056;-63
2023/09/27 02:04:08;;;;;;;0.70;0.70;;;;;;;;;;4897366;29;20037;-63
2023/09/27 02:06:34;;;;;;;0.60;0.60;;;;;;;;;;4896819;29;20457;-64
2023/09/27 02:08:59;;;;;;;0.70;0.70;;;;;;;;;;4902339;29;20107;-64
2023/09/27 02:11:25;;;;;;;0.52;0.52;;;;;;;;;;4897548;29;20032;-62
2023/09/27 02:13:50;;;;;;;0.70;0.70;;;;;;;;;;4900926;29;20032;-63
2023/09/27 02:16:16;;;;;;;0.60;0.60;;;;;;;;;;4898498;29;20557;-63
2023/09/27 02:18:41;;;;;;;0.60;0.60;;;;;;;;;;4898734;29;20406;-62
2023/09/27 02:21:06;;;;;;;0.60;0.60;;;;;;;;;;4897106;29;20538;-61
2023/09/27 02:23:32;;;;;;;0.60;0.60;;;;;;;;;;4898943;29;20044;-62
2023/09/27 02:25:58;;;;;;;0.60;0.60;;;;;;;;;;4897448;29;20032;-64
2023/09/27 02:28:23;;;;;;;0.60;0.60;;;;;;;;;;4898314;29;20059;-62
2023/09/27 02:30:49;;;;;;;0.60;0.60;;;;;;;;;;4899681;29;20123;-64
2023/09/27 02:33:14;;;;;;;0.60;0.60;;;;;;;;;;4912464;29;20392;-62
2023/09/27 02:35:39;;;;;;;0.60;0.60;;;;;;;;;;4899173;29;20395;-62
2023/09/27 02:38:06;;;;;;;0.50;0.50;;;;;;;;;;4897579;29;20064;-62
2023/09/27 02:40:31;;;;;;;0.60;0.60;;;;;;;;;;4899905;29;20119;-63
2023/09/27 02:42:57;;;;;;;0.50;0.50;;;;;;;;;;4913981;29;20071;-63
2023/09/27 02:45:22;;;;;;;0.60;0.60;;;;;;;;;;4900339;29;20168;-63
2023/09/27 02:47:48;;;;;;;0.60;0.60;;;;;;;;;;4900956;29;20063;-63
2023/09/27 02:50:14;;;;;;;0.60;0.60;;;;;;;;;;4898653;29;20040;-62
2023/09/27 02:52:40;;;;;;;0.60;0.60;;;;;;;;;;4914360;29;20032;-62
2023/09/27 02:55:08;;;;;;;0.60;0.60;;;;;;;;;;4913374;29;20534;-63
2023/09/27 02:57:34;;;;;;;0.60;0.60;;;;;;;;;;4913273;29;20032;-62
2023/09/27 02:59:59;;;;;;;0.60;0.60;;;;;;;;;;4899849;29;20066;-62
2023/09/27 03:02:25;;;;;;;0.60;0.60;;;;;;;;;;4897080;29;20036;-66
2023/09/27 03:04:50;;;;;;;0.60;0.60;;;;;;;;;;4895949;29;20032;-62
2023/09/27 03:07:16;;;;;;;0.65;0.65;;;;;;;;;;4898145;29;20048;-62
2023/09/27 03:09:42;;;;;;;0.70;0.70;;;;;;;;;;4896087;29;20037;-62
2023/09/27 03:12:08;;;;;;;0.60;0.60;;;;;;;;;;4896622;29;20084;-63
2023/09/27 03:14:34;;;;;;;0.70;0.70;;;;;;;;;;4897404;29;20039;-62
2023/09/27 03:17:00;;;;;;;0.60;0.60;;;;;;;;;;4914047;29;20036;-62
2023/09/27 03:19:25;;;;;;;0.60;0.60;;;;;;;;;;4899314;29;20037;-62
2023/09/27 03:21:51;;;;;;;0.60;0.60;;;;;;;;;;4901267;29;20107;-63
2023/09/27 03:24:17;;;;;;;0.60;0.60;;;;;;;;;;4916944;29;20371;-62
2023/09/27 03:26:42;;;;;;;0.70;0.70;;;;;;;;;;4900516;29;20070;-62
2023/09/27 03:29:07;;;;;;;0.50;0.50;;;;;;;;;;4899114;29;20233;-63
2023/09/27 03:31:33;;;;;;;0.60;0.60;;;;;;;;;;4901905;29;20028;-62
2023/09/27 03:33:58;;;;;;;0.60;0.60;;;;;;;;;;4903069;29;20854;-62
2023/09/27 03:36:24;;;;;;;0.70;0.70;;;;;;;;;;4907493;29;20123;-63
2023/09/27 03:38:49;;;;;;;0.70;0.70;;;;;;;;;;4901761;29;20114;-62
2023/09/27 03:41:14;;;;;;;0.60;0.60;;;;;;;;;;4902783;29;20040;-62
2023/09/27 03:43:40;;;;;;;0.60;0.60;;;;;;;;;;4908248;29;20052;-62
2023/09/27 03:46:05;;;;;;;0.60;0.60;;;;;;;;;;4902691;29;20032;-63
2023/09/27 03:48:32;;;;;;;0.65;0.65;;;;;;;;;;4897452;29;20040;-63
2023/09/27 03:50:57;;;;;;;0.70;0.70;;;;;;;;;;4901553;29;20066;-63
2023/09/27 03:53:24;;;;;;;0.70;0.70;;;;;;;;;;4900740;29;20036;-62
2023/09/27 03:55:50;;;;;;;0.60;0.60;;;;;;;;;;4902575;29;20024;-64
2023/09/27 03:58:15;;;;;;;0.65;0.65;;;;;;;;;;4915835;29;20043;-63
2023/09/27 04:00:41;;;;;;;0.60;0.60;;;;;;;;;;4891236;29;20090;-62
2023/09/27 04:03:06;;;;;;;0.70;0.70;;;;;;;;;;4897853;29;20037;-64
2023/09/27 04:05:31;;;;;;;0.60;0.60;;;;;;;;;;4899391;29;20036;-62
2023/09/27 04:07:57;;;;;;;0.60;0.60;;;;;;;;;;4902583;29;20033;-61
2023/09/27 04:10:24;;;;;;;0.70;0.70;;;;;;;;;;4901378;29;20108;-63
2023/09/27 04:12:49;;;;;;;0.60;0.60;;;;;;;;;;4900533;29;20664;-63
2023/09/27 04:15:16;;;;;;;0.60;0.60;;;;;;;;;;4901461;29;20467;-61
2023/09/27 04:17:41;;;;;;;0.68;0.68;;;;;;;;;;4904277;29;20036;-62
2023/09/27 04:20:17;;;;;;;0.60;0.60;;;;;;;;;;4900216;29;20044;-62
2023/09/27 04:22:43;;;;;;;0.70;0.70;;;;;;;;;;4903991;29;20043;-63
2023/09/27 04:25:09;;;;;;;0.70;0.70;;;;;;;;;;4901033;29;20091;-65
2023/09/27 04:27:34;;;;;;;0.60;0.60;;;;;;;;;;4902458;29;20037;-63
2023/09/27 04:30:00;;;;;;;0.60;0.60;;;;;;;;;;4902266;29;20035;-64
2023/09/27 04:32:25;;;;;;;0.60;0.60;;;;;;;;;;4899507;29;20040;-64
2023/09/27 04:34:51;;;;;;;0.60;0.60;;;;;;;;;;4901922;29;20035;-63
2023/09/27 04:37:16;;;;;;;0.65;0.65;;;;;;;;;;4901667;29;20483;-66
2023/09/27 04:39:42;;;;;;;0.60;0.60;;;;;;;;;;4907144;29;20104;-63
2023/09/27 04:42:07;;;;;;;0.60;0.60;;;;;;;;;;4899759;29;20039;-63
2023/09/27 04:44:32;;;;;;;0.63;0.63;;;;;;;;;;4901339;29;20036;-63
2023/09/27 04:46:57;;;;;;;0.68;0.68;;;;;;;;;;4913832;29;20031;-63
2023/09/27 04:49:23;;;;;;;0.70;0.70;;;;;;;;;;4900199;29;20040;-62
2023/09/27 04:51:48;;;;;;;0.60;0.60;;;;;;;;;;4900418;29;20028;-64
2023/09/27 04:54:13;;;;;;;0.60;0.60;;;;;;;;;;4901183;29;20054;-61
2023/09/27 04:56:39;;;;;;;0.70;0.70;;;;;;;;;;4898333;29;20045;-62
2023/09/27 04:59:07;;;;;;;0.70;0.70;;;;;;;;;;4901769;29;20071;-62
2023/09/27 05:01:33;;;;;;;0.70;0.70;;;;;;;;;;4899664;29;20084;-64
2023/09/27 05:03:58;;;;;;;0.70;0.70;;;;;;;;;;4900188;29;20037;-64
2023/09/27 05:06:23;;;;;;;0.60;0.60;;;;;;;;;;4901518;29;20661;-68
2023/09/27 05:08:50;;;;;;;0.70;0.70;;;;;;;;;;4901260;29;20570;-67
2023/09/27 05:11:15;;;;;;;0.70;0.70;;;;;;;;;;4901474;29;20043;-63
2023/09/27 05:13:41;;;;;;;0.65;0.65;;;;;;;;;;4900203;29;20041;-62
2023/09/27 05:16:07;;;;;;;0.70;0.70;;;;;;;;;;4899489;29;20039;-63
2023/09/27 05:18:32;;;;;;;0.70;0.70;;;;;;;;;;4901067;29;20039;-62
2023/09/27 05:21:02;;;;;;;0.70;0.70;;;;;;;;;;4898319;29;20835;-62
2023/09/27 05:23:28;;;;;;;0.65;0.65;;;;;;;;;;4902742;29;20474;-64
2023/09/27 05:25:53;;;;;;;0.60;0.60;;;;;;;;;;4900650;29;20032;-62
2023/09/27 05:28:18;;;;;;;0.70;0.70;;;;;;;;;;4888217;29;20079;-65
2023/09/27 05:30:44;;;;;;;0.70;0.70;;;;;;;;;;4898440;29;20117;-63
2023/09/27 05:33:09;;;;;;;0.70;0.70;;;;;;;;;;4899037;29;20028;-63
2023/09/27 05:35:34;;;;;;;0.60;0.60;;;;;;;;;;4899586;29;20028;-62
2023/09/27 05:38:00;;;;;;;0.70;0.70;;;;;;;;;;4899349;29;20036;-62
2023/09/27 05:40:25;;;;;;;0.70;0.70;;;;;;;;;;4901372;29;20051;-66
2023/09/27 05:42:50;;;;;;;0.70;0.70;;;;;;;;;;4899147;29;20493;-63
2023/09/27 05:45:16;;;;;;;0.63;0.63;;;;;;;;;;4911337;29;20048;-64
2023/09/27 05:47:42;;;;;;;0.68;0.68;;;;;;;;;;4901504;29;20510;-62
2023/09/27 05:50:12;;;;;;;0.60;0.60;;;;;;;;;;4901350;29;20077;-65
2023/09/27 05:52:37;;;;;;;0.68;0.68;;;;;;;;;;4903586;29;20534;-63
2023/09/27 05:55:06;;;;;;;0.70;0.70;;;;;;;;;;4897528;29;20017;-63
2023/09/27 05:57:32;;;;;;;0.70;0.70;;;;;;;;;;4901068;29;20059;-63
2023/09/27 05:59:58;;;;;;;0.65;0.65;;;;;;;;;;4900451;29;20045;-63
2023/09/27 06:02:30;;;;;;;0.70;0.70;;;;;;;;;;4897784;29;20041;-63
2023/09/27 06:04:55;;;;;;;0.70;0.70;;;;;;;;;;4900291;29;20028;-64
2023/09/27 06:07:22;;;;;;;0.70;0.70;;;;;;;;;;4901703;29;20063;-63
2023/09/27 06:09:48;;;;;;;0.70;0.70;;;;;;;;;;4906778;29;20032;-64
2023/09/27 06:12:14;;;;;;;0.63;0.63;;;;;;;;;;4899829;29;20035;-65
2023/09/27 06:14:43;;;;;;;0.60;0.60;;;;;;;;;;4901182;29;20139;-63
2023/09/27 06:17:10;;;;;;;0.60;0.60;;;;;;;;;;4902326;29;20079;-64
2023/09/27 06:19:35;;;;;;;0.70;0.70;;;;;;;;;;4900491;29;20047;-65
2023/09/27 06:22:06;;;;;;;0.70;0.70;;;;;;;;;;4899462;29;20067;-64
2023/09/27 06:24:32;;;;;;;0.68;0.68;;;;;;;;;;4898453;29;20060;-66
2023/09/27 06:27:00;;;;;;;0.60;0.60;;;;;;;;;;4895888;29;20023;-62
2023/09/27 06:29:26;;;;;;;0.60;0.60;;;;;;;;;;4894777;29;20047;-64
2023/09/27 06:31:51;;;;;;;0.60;0.60;;;;;;;;;;4898664;29;20024;-61
2023/09/27 06:34:17;;;;;;;0.60;0.60;;;;;;;;;;4896702;29;20070;-63
2023/09/27 06:36:43;;;;;;;0.60;0.60;;;;;;;;;;4902283;29;20096;-62
2023/09/27 06:39:12;;;;;;;0.60;0.60;;;;;;;;;;4899154;29;20024;-62
2023/09/27 06:41:39;;;;;;;0.60;0.60;;;;;;;;;;4897327;29;20044;-63
2023/09/27 06:44:07;;;;;;;0.60;0.60;;;;;;;;;;4897750;29;20037;-63
2023/09/27 06:46:35;;;;;;;0.50;0.50;;;;;;;;;;4899191;29;20037;-63
2023/09/27 06:49:01;;;;;;;0.50;0.50;;;;;;;;;;4899231;29;20455;-63
2023/09/27 06:51:27;;;;;;;0.50;0.50;;;;;;;;;;4912160;29;20041;-64
2023/09/27 06:53:52;;;;;;;0.60;0.60;;;;;;;;;;4898529;29;20033;-63
2023/09/27 06:56:17;;;;;;;0.50;0.50;;;;;;;;;;4905814;29;20050;-64
2023/09/27 06:58:43;;;;;;;0.60;0.60;;;;;;;;;;4906622;29;20028;-63
2023/09/27 07:01:08;;;;;;;0.50;0.50;;;;;;;;;;4904368;29;20063;-63
2023/09/27 07:03:36;;;;;;;0.50;0.50;;;;;;;;;;4905445;29;20075;-66
2023/09/27 07:06:02;;;;;;;0.50;0.50;;;;;;;;;;4904331;29;20031;-65
2023/09/27 07:08:28;;;;;;;0.50;0.50;;;;;;;;;;4904839;29;20041;-66
2023/09/27 07:10:53;;;;;;;0.50;0.50;;;;;;;;;;4903390;29;20537;-63
2023/09/27 07:13:18;;;;;;;0.50;0.50;;;;;;;;;;4903173;29;20025;-63
2023/09/27 07:15:45;;;;;;;0.50;0.50;;;;;;;;;;4903112;29;20037;-64
2023/09/27 07:18:11;;;;;;;0.50;0.50;;;;;;;;;;4905261;29;20036;-66
2023/09/27 07:20:36;;;;;;;0.40;0.40;;;;;;;;;;4905809;29;20049;-63
2023/09/27 07:23:04;;;;;;;0.40;0.40;;;;;;;;;;4906264;29;20047;-66
2023/09/27 07:25:32;;;;;;;0.50;0.50;;;;;;;;;;4903273;29;20063;-63
2023/09/27 07:27:58;;;;;;;0.40;0.40;;;;;;;;;;4903817;29;20099;-64
2023/09/27 07:30:24;;;;;;;0.40;0.40;;;;;;;;;;4918698;29;20123;-65
2023/09/27 07:32:56;;;;;;;0.40;0.40;;;;;;;;;;4906744;29;20029;-63
2023/09/27 07:35:23;;;;;;;0.30;0.30;;;;;;;;;;4905708;29;20032;-64
2023/09/27 07:37:49;;;;;;;0.40;0.40;;;;;;;;;;4902564;29;20443;-64
2023/09/27 07:40:14;;;;;;;0.35;0.35;;;;;;;;;;4900860;29;20044;-64
2023/09/27 07:42:41;;;;;;;0.30;0.30;;;;;;;;;;4903458;29;20060;-64
2023/09/27 07:45:09;;;;;;;0.40;0.40;;;;;;;;;;4903828;29;20762;-66
2023/09/27 07:47:34;;;;;;;;;;;;;;;;;;4907415;29;20028;-64
2023/09/27 07:49:59;;;;;;;0.40;0.40;;;;;;;;;;4919454;29;19966;-62
2023/09/27 07:52:25;;;;;;;0.30;0.30;;;;;;;;;;4905896;29;20119;-64
2023/09/27 07:54:51;;;;;;;0.30;0.30;;;;;;;;;;4905771;29;20064;-63
2023/09/27 07:57:17;;;;;;;0.40;0.40;;;;;;;;;;4908021;29;20045;-63
2023/09/27 07:59:42;;;;;;;0.30;0.30;;;;;;;;;;4905883;29;20087;-65
2023/09/27 08:02:09;;;;;;;0.30;0.30;;;;;;;;;;4903694;29;20028;-63
2023/09/27 08:04:38;;;;;;;0.30;0.30;;;;;;;;;;4904068;29;20040;-63
2023/09/27 08:07:04;;;;;;;0.30;0.30;;;;;;;;;;4898935;29;20064;-63
2023/09/27 08:09:30;;;;;;;0.30;0.30;;;;;;;;;;4901514;29;20796;-63
2023/09/27 08:11:55;;;;;;;0.30;0.30;;;;;;;;;;4901836;29;20029;-62
2023/09/27 08:14:21;;;;;;;0.30;0.30;;;;;;;;;;4900955;29;20112;-64
2023/09/27 08:16:47;;;;;;;0.27;0.27;;;;;;;;;;4900315;29;20494;-62
2023/09/27 08:19:12;;;;;;;0.20;0.20;;;;;;;;;;4901028;29;20036;-63
2023/09/27 08:21:37;;;;;;;0.30;0.30;;;;;;;;;;4900813;29;20047;-62
2023/09/27 08:24:03;;;;;;;0.20;0.20;;;;;;;;;;4901994;29;20040;-63
2023/09/27 08:26:28;;;;;;;0.30;0.30;;;;;;;;;;4903241;29;20805;-63
2023/09/27 08:28:53;;;;;;;0.30;0.30;;;;;;;;;;4898034;29;20036;-62
2023/09/27 08:31:19;;;;;;;0.30;0.30;;;;;;;;;;4901230;29;20572;-62
2023/09/27 08:33:45;;;;;;;0.30;0.30;;;;;;;;;;4897416;29;20463;-62
2023/09/27 08:36:11;;;;;;;0.30;0.30;;;;;;;;;;4899652;29;20792;-64
2023/09/27 08:38:36;;;;;;;0.20;0.20;;;;;;;;;;4901190;29;20700;-64
2023/09/27 08:41:03;;;;;;;0.20;0.20;;;;;;;;;;4911467;29;20043;-63
2023/09/27 08:43:29;;;;;;;;;;;;;;;;;;4900020;29;20114;-64
2023/09/27 08:45:55;;;;;;;0.20;0.20;;;;;;;;;;4903344;29;20014;-63
2023/09/27 08:48:22;;;;;;;0.20;0.20;;;;;;;;;;4900874;29;20035;-63
2023/09/27 08:50:50;;;;;;;0.20;0.20;;;;;;;;;;4901119;29;20036;-62
2023/09/27 08:53:15;;;;;;;0.20;0.20;;;;;;;;;;4902343;29;20036;-63
2023/09/27 08:55:45;;;;;;;0.20;0.20;;;;;;;;;;4899676;29;20036;-63
2023/09/27 08:58:12;;;;;;;0.20;0.20;;;;;;;;;;4904115;29;20028;-62
2023/09/27 09:00:41;;;;;;;0.20;0.20;;;;;;;;;;4901490;29;20096;-64
2023/09/27 09:03:06;;;;;;;0.20;0.20;;;;;;;;;;4900419;29;20059;-64
2023/09/27 09:05:33;;;;;;;0.20;0.20;;;;;;;;;;4900349;29;20024;-64
2023/09/27 09:08:04;;;;;;;0.20;0.20;;;;;;;;;;4903703;29;20781;-63
2023/09/27 09:10:29;;;;;;;0.20;0.20;;;;;;;;;;4909331;29;20397;-64
2023/09/27 09:12:54;;;;;;;0.20;0.20;;;;;;;;;;4895955;29;20501;-63
2023/09/27 09:15:41;;;;;;;0.20;0.20;;;;;;;;;;4898034;29;20399;-63
2023/09/27 09:18:28;;;;;;;0.20;0.20;;;;;;;;;;4916877;29;20033;-61
2023/09/27 09:20:54;;;;;;;;;;;;;;;;;;4901245;29;20044;-64
2023/09/27 09:23:36;;;;;;;0.20;0.20;;;;;;;;;;4905379;29;20401;-64
2023/09/27 09:26:05;;;;;;;0.20;0.20;;;;;;;;;;4899659;29;20745;-66
2023/09/27 09:28:31;;;;;;;0.10;0.10;;;;;;;;;;4903174;29;20680;-65
2023/09/27 09:30:56;;;;;;;0.10;0.10;;;;;;;;;;4899301;29;20048;-63
2023/09/27 09:33:24;;;;;;;0.20;0.20;;;;;;;;;;4901270;29;20032;-63
2023/09/27 09:35:51;;;;;;;0.20;0.20;;;;;;;;;;4907340;29;20047;-63
2023/09/27 09:38:24;;;;;;;0.20;0.20;;;;;;;;;;4899644;29;20024;-63
2023/09/27 09:40:57;;;;;;;0.20;0.20;;;;;;;;;;4899655;29;20411;-63
2023/09/27 09:43:36;;;;;;;0.15;0.15;;;;;;;;;;4898195;29;20531;-61
2023/09/27 09:46:03;;;;;;;0.17;0.17;;;;;;;;;;4896631;29;20477;-61
2023/09/27 09:48:29;;;;;;;0.10;0.10;;;;;;;;;;4898246;29;20063;-61
2023/09/27 09:50:59;;;;;;;0.10;0.10;;;;;;;;;;4903422;29;20189;-61
2023/09/27 09:53:25;;;;;;;0.10;0.10;;;;;;;;;;4903030;29;20119;-62
2023/09/27 09:55:51;;;;;;;0.13;0.13;;;;;;;;;;4900660;29;20103;-62
2023/09/27 09:58:20;;;;;;;0.10;0.10;;;;;;;;;;4903443;29;20032;-61
2023/09/27 10:00:49;;;;;;;0.10;0.10;;;;;;;;;;4897009;29;20123;-62
2023/09/27 10:03:19;;;;;;;0.10;0.10;;;;;;;;;;4898663;29;20123;-62
2023/09/27 10:05:45;;;;;;;0.10;0.10;;;;;;;;;;4902620;29;20043;-62
2023/09/27 10:08:10;;;;;;;0.10;0.10;;;;;;;;;;4898250;29;20017;-62
2023/09/27 10:10:36;;;;;;;0.10;0.10;;;;;;;;;;4915008;29;20047;-64
2023/09/27 10:13:04;;;;;;;0.10;0.10;;;;;;;;;;4898342;29;20029;-62
2023/09/27 10:15:32;;;;;;;0.10;0.10;;;;;;;;;;4903851;29;20056;-64
2023/09/27 10:18:16;;;;;;;0.10;0.10;;;;;;;;;;4913984;29;20033;-63
2023/09/27 10:21:00;;;;;;;0.10;0.10;;;;;;;;;;4900353;29;20036;-64
2023/09/27 10:23:25;;;;;;;0.10;0.10;;;;;;;;;;4902309;29;20067;-64
2023/09/27 10:25:51;;;;;;;0.10;0.10;;;;;;;;;;4900633;29;20065;-62
2023/09/27 10:28:16;;;;;;;0.10;0.10;;;;;;;;;;4897901;29;20032;-62
2023/09/27 10:30:41;;;;;;;0.10;0.10;;;;;;;;;;4897778;29;20034;-61
2023/09/27 10:33:29;;;;;;;0.10;0.10;;;;;;;;;;4910614;29;20036;-62
2023/09/27 10:36:00;;;;;;;0.10;0.10;;;;;;;;;;4896773;29;20048;-62
2023/09/27 10:38:46;;;;;;;0.10;0.10;;;;;;;;;;4909414;29;20051;-62
2023/09/27 10:41:30;;;;;;;0.10;0.10;;;;;;;;;;4892672;29;20048;-62
2023/09/27 10:43:56;;;;;;;0.10;0.10;;;;;;;;;;4892762;29;20072;-62
2023/09/27 10:46:21;;;;;;;0.10;0.10;;;;;;;;;;4895553;29;20063;-62
2023/09/27 10:48:57;;;;;;;0.10;0.10;;;;;;;;;;4900105;29;20043;-62
2023/09/27 10:51:25;;;;;;;0.10;0.10;;;;;;;;;;4901644;29;20040;-63
2023/09/27 10:53:51;;;;;;;0.10;0.10;;;;;;;;;;4899182;29;20044;-62
2023/09/27 10:56:17;;;;;;;0.10;0.10;;;;;;;;;;4897973;29;20043;-62
2023/09/27 10:58:46;;;;;;;0.10;0.10;;;;;;;;;;4897444;29;20044;-62
2023/09/27 11:01:18;;;;;;;0.00;0.00;;;;;;;;;;4902480;29;20099;-62
2023/09/27 11:03:43;;;;;;;0.10;0.10;;;;;;;;;;4900385;29;20126;-63
2023/09/27 11:06:09;;;;;;;0.10;0.10;;;;;;;;;;4900566;29;20118;-62
2023/09/27 11:08:34;;;;;;;0.10;0.10;;;;;;;;;;4899654;29;20427;-64
2023/09/27 11:11:00;;;;;;;0.10;0.10;;;;;;;;;;4902020;29;20051;-61
2023/09/27 11:13:29;;;;;;;0.10;0.10;;;;;;;;;;4900486;29;20033;-63
2023/09/27 11:16:05;;;;;;;0.10;0.10;;;;;;;;;;4900070;29;20124;-62
2023/09/27 11:18:33;;;;;;;0.03;0.03;;;;;;;;;;4901689;29;20103;-62
2023/09/27 11:21:07;;;;;;;0.00;0.00;;;;;;;;;;4900152;29;20032;-64
2023/09/27 11:23:52;;;;;;;0.00;0.00;;;;;;;;;;4904164;29;20116;-63
2023/09/27 11:26:19;;;;;;;0.00;0.00;;;;;;;;;;4897406;29;20120;-63
2023/09/27 11:28:45;;;;;;;0.00;0.00;;;;;;;;;;4902299;29;20033;-63
2023/09/27 11:31:10;;;;;;;0.00;0.00;;;;;;;;;;4917665;29;20088;-65
2023/09/27 11:33:35;;;;;;;0.00;0.00;;;;;;;;;;4899486;29;20036;-63
2023/09/27 11:36:00;;;;;;;;;;;;;;;;;;4897027;29;20479;-64
2023/09/27 11:38:26;;;;;;;0.00;0.00;;;;;;;;;;4896074;29;19915;-65
2023/09/27 11:40:52;;;;;;;;;;;;;;;;;;4902189;29;20051;-62
2023/09/27 11:43:17;;;;;;;;;;;;;;;;;;4906072;29;19915;-63
2023/09/27 11:45:43;;;;;;;0.00;0.00;;;;;;;;;;4904934;29;20289;-64
2023/09/27 11:48:09;;;;;;;0.00;0.00;;;;;;;;;;4901603;29;20051;-64
2023/09/27 11:50:34;;;;;;;0.00;0.00;;;;;;;;;;4905131;29;20391;-63
2023/09/27 11:53:00;;;;;;;0.00;0.00;;;;;;;;;;4902491;29;20547;-63
2023/09/27 11:55:26;;;;;;;0.00;0.00;;;;;;;;;;4912374;29;20046;-64
2023/09/27 11:57:56;;;;;;;0.00;0.00;;;;;;;;;;4905930;29;20111;-63
2023/09/27 12:00:22;;;;;;;0.00;0.00;;;;;;;;;;4903796;29;20450;-63
2023/09/27 12:02:47;;;;;;;0.00;0.00;;;;;;;;;;4907591;29;20075;-63
2023/09/27 12:05:13;;;;;;;0.00;0.00;;;;;;;;;;4897947;29;20056;-64
2023/09/27 12:07:39;;;;;;;0.00;0.00;;;;;;;;;;4897683;29;20384;-64
2023/09/27 12:10:05;;;;;;;0.00;0.00;;;;;;;;;;4899776;29;20490;-62
2023/09/27 12:12:30;;;;;;;0.00;0.00;;;;;;;;;;4897277;29;20040;-63
2023/09/27 12:14:56;;;;;;;0.00;0.00;;;;;;;;;;4895725;29;20028;-63
2023/09/27 12:17:21;;;;;;;0.00;0.00;;;;;;;;;;4917142;29;20028;-64
2023/09/27 12:19:47;;;;;;;0.00;0.00;;;;;;;;;;4902603;29;20427;-65
2023/09/27 12:22:12;;;;;;;0.00;0.00;;;;;;;;;;4902437;29;20039;-63
2023/09/27 12:24:37;;;;;;;0.00;0.00;;;;;;;;;;4902344;29;20040;-64
2023/09/27 12:27:04;;;;;;;0.00;0.00;;;;;;;;;;4900473;29;20486;-64
2023/09/27 12:29:29;;;;;;;0.00;0.00;;;;;;;;;;4901494;29;20035;-64
2023/09/27 12:31:55;;;;;;;0.00;0.00;;;;;;;;;;4902928;29;20028;-64
2023/09/27 12:34:20;;;;;;;0.00;0.00;;;;;;;;;;4903664;29;20467;-63
2023/09/27 12:36:45;;;;;;;0.00;0.00;;;;;;;;;;4902046;29;20024;-64
2023/09/27 12:39:11;;;;;;;0.00;0.00;;;;;;;;;;4905367;29;20052;-65
2023/09/27 12:41:36;;;;;;;0.00;0.00;;;;;;;;;;4904919;29;20077;-63
2023/09/27 12:44:02;;;;;;;0.00;0.00;;;;;;;;;;4906302;29;20103;-64
2023/09/27 12:46:28;;;;;;;0.00;0.00;;;;;;;;;;4901053;29;20123;-64
2023/09/27 12:48:54;;;;;;;0.00;0.00;;;;;;;;;;4899130;29;20113;-64
2023/09/27 12:51:19;;;;;;;0.00;0.00;;;;;;;;;;4900115;29;20144;-65
2023/09/27 12:53:45;;;;;;;0.00;0.00;;;;;;;;;;4897999;29;20164;-64
2023/09/27 12:56:10;;;;;;;0.00;0.00;;;;;;;;;;4895297;29;20116;-64
2023/09/27 12:58:36;;;;;;;0.00;0.00;;;;;;;;;;4897185;29;20171;-64
2023/09/27 13:01:01;;;;;;;0.00;0.00;;;;;;;;;;4903263;29;20368;-65
2023/09/27 13:03:26;;;;;;;0.00;0.00;;;;;;;;;;4901267;29;20459;-66
2023/09/27 13:05:52;;;;;;;0.00;0.00;;;;;;;;;;4902168;29;20032;-65
2023/09/27 13:08:18;;;;;;;0.00;0.00;;;;;;;;;;4899158;29;20060;-65
2023/09/27 13:10:43;;;;;;;0.00;0.00;;;;;;;;;;4898047;29;20047;-65
2023/09/27 13:13:09;;;;;;;0.00;0.00;;;;;;;;;;4900063;29;20033;-63
2023/09/27 13:15:35;;;;;;;0.00;0.00;;;;;;;;;;4899845;29;20479;-63
2023/09/27 13:18:00;;;;;;;0.00;0.00;;;;;;;;;;4901926;29;20041;-64
2023/09/27 13:20:25;;;;;;;0.00;0.00;;;;;;;;;;4900379;29;20473;-64
2023/09/27 13:22:51;;;;;;;0.00;0.00;;;;;;;;;;4901577;29;20060;-64
2023/09/27 13:25:17;;;;;;;0.00;0.00;;;;;;;;;;4903443;29;20032;-63
2023/09/27 13:27:42;;;;;;;0.00;0.00;;;;;;;;;;4902485;29;20044;-64
2023/09/27 13:30:08;;;;;;;0.00;0.00;;;;;;;;;;4900850;29;20032;-65
2023/09/27 13:32:33;;;;;;;0.00;0.00;;;;;;;;;;4901150;29;20029;-64
2023/09/27 13:34:58;;;;;;;0.00;0.00;;;;;;;;;;4899822;29;20032;-64
2023/09/27 13:37:24;;;;;;;0.00;0.00;;;;;;;;;;4900411;29;20032;-64
2023/09/27 13:39:49;;;;;;;0.00;0.00;;;;;;;;;;4903593;29;20391;-64
2023/09/27 13:42:14;;;;;;;0.00;0.00;;;;;;;;;;4900746;29;20035;-64
2023/09/27 13:44:40;;;;;;;0.00;0.00;;;;;;;;;;4898969;29;20403;-64
2023/09/27 13:47:05;;;;;;;0.00;0.00;;;;;;;;;;4894725;29;20033;-64
2023/09/27 13:49:30;;;;;;;0.00;0.00;;;;;;;;;;4898403;29;20036;-63
2023/09/27 13:51:56;;;;;;;0.00;0.00;;;;;;;;;;4902966;29;20143;-64
2023/09/27 13:54:22;;;;;;;0.00;0.00;;;;;;;;;;4901009;29;20032;-64
2023/09/27 13:56:48;;;;;;;0.00;0.00;;;;;;;;;;4905762;29;20042;-65
2023/09/27 13:59:13;;;;;;;0.00;0.00;;;;;;;;;;4898453;29;20043;-63
2023/09/27 14:01:39;;;;;;;0.00;0.00;;;;;;;;;;4898459;29;20047;-63
2023/09/27 14:04:04;;;;;;;0.00;0.00;;;;;;;;;;4903674;29;20039;-63
2023/09/27 14:06:30;;;;;;;0.00;0.00;;;;;;;;;;4903932;29;20432;-66
2023/09/27 14:08:56;;;;;;;0.00;0.00;;;;;;;;;;4901092;29;20040;-63
2023/09/27 14:11:22;;;;;;;0.00;0.00;;;;;;;;;;4902762;29;20040;-63
2023/09/27 14:13:47;;;;;;;0.00;0.00;;;;;;;;;;4901920;29;20032;-62
2023/09/27 14:16:12;;;;;;;0.00;0.00;;;;;;;;;;4904114;29;20024;-63
2023/09/27 14:18:38;;;;;;;0.00;0.00;;;;;;;;;;4901336;29;20068;-64
2023/09/27 14:21:05;;;;;;;0.00;0.00;;;;;;;;;;4899810;29;20890;-64
2023/09/27 14:23:30;;;;;;;0.00;0.00;;;;;;;;;;4899040;29;20116;-63
2023/09/27 14:25:55;;;;;;;;;;;;;;;;;;4900452;29;20119;-62
2023/09/27 14:28:21;;;;;;;0.00;0.00;;;;;;;;;;4902018;29;19915;-62
2023/09/27 14:30:46;;;;;;;0.00;0.00;;;;;;;;;;4900367;29;20403;-63
2023/09/27 14:33:11;;;;;;;0.00;0.00;;;;;;;;;;4893004;29;20765;-62
2023/09/27 14:35:39;;;;;;;0.00;0.00;;;;;;;;;;4892870;29;20033;-63
2023/09/27 14:38:05;;;;;;;0.00;0.00;;;;;;;;;;4896862;29;20039;-63
2023/09/27 14:40:32;;;;;;;0.00;0.00;;;;;;;;;;4900610;29;20735;-63